sensor_id;sensor_type;location;lat;lon;timestamp;P1;durP1;ratioP1;P2;durP2;ratioP2
11763;SDS011;5939;56.522;14.950;2022-10-13T00:02:10;1.67;;;1.00;;
11763;SDS011;5939;56.522;14.950;2022-10-13T00:04:35;3.10;;;1.30;;
11763;SDS011;5939;56.522;14.950;2022-10-13T00:07:01;1.67;;;1.13;;
11763;SDS011;5939;56.522;14.950;2022-10-13T00:09:27;1.10;;;1.00;;
11763;SDS011;5939;56.522;14.950;2022-10-13T00:11:55;1.00;;;0.90;;
11763;SDS011;5939;56.522;14.950;2022-10-13T00:14:21;1.40;;;1.20;;
11763;SDS011;5939;56.522;14.950;2022-10-13T00:16:47;1.53;;;1.10;;
11763;SDS011;5939;56.522;14.950;2022-10-13T00:19:13;1.77;;;1.00;;
11763;SDS011;5939;56.522;14.950;2022-10-13T00:21:38;1.67;;;1.10;;
11763;SDS011;5939;56.522;14.950;2022-10-13T00:24:04;2.67;;;1.00;;
11763;SDS011;5939;56.522;14.950;2022-10-13T00:26:30;2.03;;;1.70;;
11763;SDS011;5939;56.522;14.950;2022-10-13T00:28:56;1.73;;;1.00;;
11763;SDS011;5939;56.522;14.950;2022-10-13T00:31:28;1.20;;;1.10;;
11763;SDS011;5939;56.522;14.950;2022-10-13T00:33:59;1.33;;;1.00;;
11763;SDS011;5939;56.522;14.950;2022-10-13T00:36:26;1.73;;;1.17;;
11763;SDS011;5939;56.522;14.950;2022-10-13T00:38:52;2.30;;;1.07;;
11763;SDS011;5939;56.522;14.950;2022-10-13T00:41:19;3.93;;;1.10;;
11763;SDS011;5939;56.522;14.950;2022-10-13T00:46:22;2.53;;;1.37;;
11763;SDS011;5939;56.522;14.950;2022-10-13T00:48:49;1.10;;;1.00;;
11763;SDS011;5939;56.522;14.950;2022-10-13T00:51:17;2.00;;;1.23;;
11763;SDS011;5939;56.522;14.950;2022-10-13T00:53:46;2.33;;;1.10;;
11763;SDS011;5939;56.522;14.950;2022-10-13T00:56:12;1.53;;;1.03;;
11763;SDS011;5939;56.522;14.950;2022-10-13T00:58:41;1.30;;;0.93;;
11763;SDS011;5939;56.522;14.950;2022-10-13T01:01:08;1.10;;;1.00;;
11763;SDS011;5939;56.522;14.950;2022-10-13T01:03:34;2.53;;;1.10;;
11763;SDS011;5939;56.522;14.950;2022-10-13T01:06:00;1.37;;;0.90;;
11763;SDS011;5939;56.522;14.950;2022-10-13T01:08:29;1.33;;;1.23;;
11763;SDS011;5939;56.522;14.950;2022-10-13T01:22:24;1.67;;;1.00;;
11763;SDS011;5939;56.522;14.950;2022-10-13T01:24:42;3.37;;;1.00;;
11763;SDS011;5939;56.522;14.950;2022-10-13T01:30:06;1.97;;;1.10;;
11763;SDS011;5939;56.522;14.950;2022-10-13T01:35:12;1.57;;;1.17;;
11763;SDS011;5939;56.522;14.950;2022-10-13T01:37:47;1.17;;;1.03;;
11763;SDS011;5939;56.522;14.950;2022-10-13T01:40:21;1.97;;;1.10;;
11763;SDS011;5939;56.522;14.950;2022-10-13T01:43:00;1.27;;;1.17;;
11763;SDS011;5939;56.522;14.950;2022-10-13T01:45:49;3.50;;;1.30;;
11763;SDS011;5939;56.522;14.950;2022-10-13T01:48:27;1.70;;;1.10;;
11763;SDS011;5939;56.522;14.950;2022-10-13T01:50:54;1.80;;;1.27;;
11763;SDS011;5939;56.522;14.950;2022-10-13T01:53:22;1.10;;;1.00;;
11763;SDS011;5939;56.522;14.950;2022-10-13T01:55:53;1.33;;;1.23;;
11763;SDS011;5939;56.522;14.950;2022-10-13T01:58:24;1.37;;;1.03;;
11763;SDS011;5939;56.522;14.950;2022-10-13T02:00:55;1.93;;;1.20;;
11763;SDS011;5939;56.522;14.950;2022-10-13T02:03:25;1.37;;;1.13;;
11763;SDS011;5939;56.522;14.950;2022-10-13T02:09:17;0.97;;;0.93;;
11763;SDS011;5939;56.522;14.950;2022-10-13T02:11:27;1.43;;;1.30;;
11763;SDS011;5939;56.522;14.950;2022-10-13T02:16:41;1.43;;;1.33;;
11763;SDS011;5939;56.522;14.950;2022-10-13T02:19:10;2.37;;;1.10;;
11763;SDS011;5939;56.522;14.950;2022-10-13T02:21:38;1.43;;;1.30;;
11763;SDS011;5939;56.522;14.950;2022-10-13T02:24:05;2.70;;;1.20;;
11763;SDS011;5939;56.522;14.950;2022-10-13T02:26:31;1.97;;;1.20;;
11763;SDS011;5939;56.522;14.950;2022-10-13T02:28:59;3.33;;;1.30;;
11763;SDS011;5939;56.522;14.950;2022-10-13T02:31:31;1.37;;;1.20;;
11763;SDS011;5939;56.522;14.950;2022-10-13T02:33:56;1.77;;;1.27;;
11763;SDS011;5939;56.522;14.950;2022-10-13T02:36:22;1.73;;;1.33;;
11763;SDS011;5939;56.522;14.950;2022-10-13T02:38:48;1.20;;;1.10;;
11763;SDS011;5939;56.522;14.950;2022-10-13T02:41:13;2.13;;;1.20;;
11763;SDS011;5939;56.522;14.950;2022-10-13T02:43:39;1.50;;;1.23;;
11763;SDS011;5939;56.522;14.950;2022-10-13T02:46:05;2.37;;;1.20;;
11763;SDS011;5939;56.522;14.950;2022-10-13T02:48:30;4.10;;;1.40;;
11763;SDS011;5939;56.522;14.950;2022-10-13T02:50:56;1.43;;;1.23;;
11763;SDS011;5939;56.522;14.950;2022-10-13T02:53:22;1.40;;;1.17;;
11763;SDS011;5939;56.522;14.950;2022-10-13T02:55:47;2.70;;;1.30;;
11763;SDS011;5939;56.522;14.950;2022-10-13T02:58:13;1.63;;;1.33;;
11763;SDS011;5939;56.522;14.950;2022-10-13T03:00:39;2.60;;;1.10;;
11763;SDS011;5939;56.522;14.950;2022-10-13T03:03:04;2.10;;;1.40;;
11763;SDS011;5939;56.522;14.950;2022-10-13T03:05:31;2.47;;;1.40;;
11763;SDS011;5939;56.522;14.950;2022-10-13T03:07:57;2.77;;;1.30;;
11763;SDS011;5939;56.522;14.950;2022-10-13T03:10:22;1.27;;;1.10;;
11763;SDS011;5939;56.522;14.950;2022-10-13T03:12:48;1.63;;;1.30;;
11763;SDS011;5939;56.522;14.950;2022-10-13T03:15:14;2.70;;;1.20;;
11763;SDS011;5939;56.522;14.950;2022-10-13T03:17:40;2.13;;;1.30;;
11763;SDS011;5939;56.522;14.950;2022-10-13T03:20:06;2.27;;;1.30;;
11763;SDS011;5939;56.522;14.950;2022-10-13T03:22:32;2.27;;;1.33;;
11763;SDS011;5939;56.522;14.950;2022-10-13T03:24:58;2.17;;;1.23;;
11763;SDS011;5939;56.522;14.950;2022-10-13T03:27:23;1.90;;;1.47;;
11763;SDS011;5939;56.522;14.950;2022-10-13T03:29:49;2.93;;;1.30;;
11763;SDS011;5939;56.522;14.950;2022-10-13T03:32:15;2.07;;;1.40;;
11763;SDS011;5939;56.522;14.950;2022-10-13T03:34:41;1.57;;;1.03;;
11763;SDS011;5939;56.522;14.950;2022-10-13T03:37:06;2.77;;;1.20;;
11763;SDS011;5939;56.522;14.950;2022-10-13T03:39:32;1.50;;;1.20;;
11763;SDS011;5939;56.522;14.950;2022-10-13T03:41:58;2.37;;;1.20;;
11763;SDS011;5939;56.522;14.950;2022-10-13T03:44:24;1.30;;;1.20;;
11763;SDS011;5939;56.522;14.950;2022-10-13T03:46:49;2.53;;;1.23;;
11763;SDS011;5939;56.522;14.950;2022-10-13T03:49:15;2.53;;;1.20;;
11763;SDS011;5939;56.522;14.950;2022-10-13T03:51:42;2.13;;;1.40;;
11763;SDS011;5939;56.522;14.950;2022-10-13T03:54:10;1.50;;;1.40;;
11763;SDS011;5939;56.522;14.950;2022-10-13T03:56:36;1.77;;;1.37;;
11763;SDS011;5939;56.522;14.950;2022-10-13T03:59:03;2.30;;;1.30;;
11763;SDS011;5939;56.522;14.950;2022-10-13T04:01:30;1.70;;;1.40;;
11763;SDS011;5939;56.522;14.950;2022-10-13T04:03:57;3.30;;;1.63;;
11763;SDS011;5939;56.522;14.950;2022-10-13T04:06:26;1.83;;;1.30;;
11763;SDS011;5939;56.522;14.950;2022-10-13T04:08:53;1.30;;;1.20;;
11763;SDS011;5939;56.522;14.950;2022-10-13T04:11:19;2.50;;;1.20;;
11763;SDS011;5939;56.522;14.950;2022-10-13T04:13:46;4.87;;;1.40;;
11763;SDS011;5939;56.522;14.950;2022-10-13T04:16:13;2.97;;;1.50;;
11763;SDS011;5939;56.522;14.950;2022-10-13T04:18:40;2.70;;;1.53;;
11763;SDS011;5939;56.522;14.950;2022-10-13T04:21:10;1.47;;;1.33;;
11763;SDS011;5939;56.522;14.950;2022-10-13T04:23:37;1.83;;;1.60;;
11763;SDS011;5939;56.522;14.950;2022-10-13T04:26:03;2.30;;;1.20;;
11763;SDS011;5939;56.522;14.950;2022-10-13T04:28:30;1.40;;;1.30;;
11763;SDS011;5939;56.522;14.950;2022-10-13T04:30:59;1.20;;;1.10;;
11763;SDS011;5939;56.522;14.950;2022-10-13T04:33:26;1.67;;;1.40;;
11763;SDS011;5939;56.522;14.950;2022-10-13T04:35:51;2.13;;;1.30;;
11763;SDS011;5939;56.522;14.950;2022-10-13T04:38:17;1.20;;;1.10;;
11763;SDS011;5939;56.522;14.950;2022-10-13T04:40:43;2.97;;;1.43;;
11763;SDS011;5939;56.522;14.950;2022-10-13T04:43:08;1.77;;;1.20;;
11763;SDS011;5939;56.522;14.950;2022-10-13T04:45:34;3.63;;;1.10;;
11763;SDS011;5939;56.522;14.950;2022-10-13T04:48:00;2.70;;;1.10;;
11763;SDS011;5939;56.522;14.950;2022-10-13T04:50:26;2.37;;;1.10;;
11763;SDS011;5939;56.522;14.950;2022-10-13T04:52:51;2.30;;;1.30;;
11763;SDS011;5939;56.522;14.950;2022-10-13T04:55:17;2.73;;;1.23;;
11763;SDS011;5939;56.522;14.950;2022-10-13T04:57:42;1.30;;;1.10;;
11763;SDS011;5939;56.522;14.950;2022-10-13T05:00:09;3.83;;;1.37;;
11763;SDS011;5939;56.522;14.950;2022-10-13T05:02:35;3.27;;;1.30;;
11763;SDS011;5939;56.522;14.950;2022-10-13T05:05:01;1.57;;;1.03;;
11763;SDS011;5939;56.522;14.950;2022-10-13T05:07:27;2.23;;;1.40;;
11763;SDS011;5939;56.522;14.950;2022-10-13T05:09:54;3.63;;;1.20;;
11763;SDS011;5939;56.522;14.950;2022-10-13T05:12:20;2.23;;;1.20;;
11763;SDS011;5939;56.522;14.950;2022-10-13T05:14:45;2.13;;;1.20;;
11763;SDS011;5939;56.522;14.950;2022-10-13T05:17:11;2.97;;;1.30;;
11763;SDS011;5939;56.522;14.950;2022-10-13T05:19:37;3.20;;;1.40;;
11763;SDS011;5939;56.522;14.950;2022-10-13T05:22:02;1.37;;;1.20;;
11763;SDS011;5939;56.522;14.950;2022-10-13T05:24:28;1.40;;;1.20;;
11763;SDS011;5939;56.522;14.950;2022-10-13T05:27:18;2.60;;;1.43;;
11763;SDS011;5939;56.522;14.950;2022-10-13T05:29:44;1.47;;;1.10;;
11763;SDS011;5939;56.522;14.950;2022-10-13T05:32:10;2.13;;;1.30;;
11763;SDS011;5939;56.522;14.950;2022-10-13T05:34:35;3.73;;;1.23;;
11763;SDS011;5939;56.522;14.950;2022-10-13T05:37:01;1.30;;;1.20;;
11763;SDS011;5939;56.522;14.950;2022-10-13T05:39:27;2.00;;;1.50;;
11763;SDS011;5939;56.522;14.950;2022-10-13T05:41:52;1.30;;;1.10;;
11763;SDS011;5939;56.522;14.950;2022-10-13T05:44:18;2.73;;;1.50;;
11763;SDS011;5939;56.522;14.950;2022-10-13T05:46:44;1.83;;;1.30;;
11763;SDS011;5939;56.522;14.950;2022-10-13T05:49:10;4.73;;;1.63;;
11763;SDS011;5939;56.522;14.950;2022-10-13T05:51:36;1.73;;;1.30;;
11763;SDS011;5939;56.522;14.950;2022-10-13T05:56:43;1.60;;;1.50;;
11763;SDS011;5939;56.522;14.950;2022-10-13T05:59:14;3.20;;;1.40;;
11763;SDS011;5939;56.522;14.950;2022-10-13T06:01:41;2.53;;;1.40;;
11763;SDS011;5939;56.522;14.950;2022-10-13T06:04:10;1.23;;;1.13;;
11763;SDS011;5939;56.522;14.950;2022-10-13T06:06:46;1.50;;;1.23;;
11763;SDS011;5939;56.522;14.950;2022-10-13T06:09:12;1.50;;;1.40;;
11763;SDS011;5939;56.522;14.950;2022-10-13T06:11:38;1.90;;;1.30;;
11763;SDS011;5939;56.522;14.950;2022-10-13T06:14:03;2.27;;;1.10;;
11763;SDS011;5939;56.522;14.950;2022-10-13T06:16:29;2.90;;;1.37;;
11763;SDS011;5939;56.522;14.950;2022-10-13T06:18:55;3.27;;;1.40;;
11763;SDS011;5939;56.522;14.950;2022-10-13T06:21:20;2.73;;;1.20;;
11763;SDS011;5939;56.522;14.950;2022-10-13T06:23:46;2.00;;;1.40;;
11763;SDS011;5939;56.522;14.950;2022-10-13T06:26:11;2.30;;;1.40;;
11763;SDS011;5939;56.522;14.950;2022-10-13T06:28:37;1.30;;;1.20;;
11763;SDS011;5939;56.522;14.950;2022-10-13T06:31:06;1.80;;;1.50;;
11763;SDS011;5939;56.522;14.950;2022-10-13T06:33:32;1.93;;;1.30;;
11763;SDS011;5939;56.522;14.950;2022-10-13T06:36:01;2.97;;;1.40;;
11763;SDS011;5939;56.522;14.950;2022-10-13T06:38:29;2.97;;;1.53;;
11763;SDS011;5939;56.522;14.950;2022-10-13T06:40:58;1.40;;;1.30;;
11763;SDS011;5939;56.522;14.950;2022-10-13T06:43:27;5.07;;;1.50;;
11763;SDS011;5939;56.522;14.950;2022-10-13T06:45:56;3.77;;;1.40;;
11763;SDS011;5939;56.522;14.950;2022-10-13T06:48:23;3.07;;;1.37;;
11763;SDS011;5939;56.522;14.950;2022-10-13T06:50:49;2.53;;;1.90;;
11763;SDS011;5939;56.522;14.950;2022-10-13T06:53:15;2.37;;;1.53;;
11763;SDS011;5939;56.522;14.950;2022-10-13T06:55:40;2.33;;;1.30;;
11763;SDS011;5939;56.522;14.950;2022-10-13T06:58:08;3.57;;;1.50;;
11763;SDS011;5939;56.522;14.950;2022-10-13T07:00:34;2.07;;;1.10;;
11763;SDS011;5939;56.522;14.950;2022-10-13T07:03:00;1.73;;;1.23;;
11763;SDS011;5939;56.522;14.950;2022-10-13T07:05:26;2.13;;;1.33;;
11763;SDS011;5939;56.522;14.950;2022-10-13T07:07:51;2.23;;;1.53;;
11763;SDS011;5939;56.522;14.950;2022-10-13T07:10:20;1.90;;;1.17;;
11763;SDS011;5939;56.522;14.950;2022-10-13T07:12:46;3.10;;;1.50;;
11763;SDS011;5939;56.522;14.950;2022-10-13T07:15:11;1.50;;;1.40;;
11763;SDS011;5939;56.522;14.950;2022-10-13T07:17:37;2.23;;;1.60;;
11763;SDS011;5939;56.522;14.950;2022-10-13T07:20:03;1.47;;;1.37;;
11763;SDS011;5939;56.522;14.950;2022-10-13T07:22:29;2.07;;;1.43;;
11763;SDS011;5939;56.522;14.950;2022-10-13T07:24:55;4.10;;;1.40;;
11763;SDS011;5939;56.522;14.950;2022-10-13T07:27:21;1.70;;;1.23;;
11763;SDS011;5939;56.522;14.950;2022-10-13T07:29:47;1.97;;;1.40;;
11763;SDS011;5939;56.522;14.950;2022-10-13T07:32:13;2.50;;;1.50;;
11763;SDS011;5939;56.522;14.950;2022-10-13T07:34:39;4.17;;;1.63;;
11763;SDS011;5939;56.522;14.950;2022-10-13T07:37:05;4.13;;;1.43;;
11763;SDS011;5939;56.522;14.950;2022-10-13T07:39:30;1.70;;;1.47;;
11763;SDS011;5939;56.522;14.950;2022-10-13T07:41:56;1.93;;;1.73;;
11763;SDS011;5939;56.522;14.950;2022-10-13T07:44:22;2.33;;;1.47;;
11763;SDS011;5939;56.522;14.950;2022-10-13T07:46:47;3.43;;;1.60;;
11763;SDS011;5939;56.522;14.950;2022-10-13T07:49:13;2.17;;;1.53;;
11763;SDS011;5939;56.522;14.950;2022-10-13T07:51:38;2.27;;;1.77;;
11763;SDS011;5939;56.522;14.950;2022-10-13T07:54:05;2.00;;;1.50;;
11763;SDS011;5939;56.522;14.950;2022-10-13T07:56:30;3.50;;;1.77;;
11763;SDS011;5939;56.522;14.950;2022-10-13T07:58:56;3.00;;;1.50;;
11763;SDS011;5939;56.522;14.950;2022-10-13T08:01:22;1.83;;;1.57;;
11763;SDS011;5939;56.522;14.950;2022-10-13T08:03:47;2.57;;;1.50;;
11763;SDS011;5939;56.522;14.950;2022-10-13T08:06:13;3.97;;;1.30;;
11763;SDS011;5939;56.522;14.950;2022-10-13T08:08:39;5.63;;;1.90;;
11763;SDS011;5939;56.522;14.950;2022-10-13T08:11:08;2.57;;;1.70;;
11763;SDS011;5939;56.522;14.950;2022-10-13T08:13:36;2.90;;;1.60;;
11763;SDS011;5939;56.522;14.950;2022-10-13T08:16:02;4.10;;;2.10;;
11763;SDS011;5939;56.522;14.950;2022-10-13T08:18:28;4.70;;;1.90;;
11763;SDS011;5939;56.522;14.950;2022-10-13T08:20:54;2.57;;;1.77;;
11763;SDS011;5939;56.522;14.950;2022-10-13T08:23:24;2.47;;;1.87;;
11763;SDS011;5939;56.522;14.950;2022-10-13T08:25:50;4.77;;;2.10;;
11763;SDS011;5939;56.522;14.950;2022-10-13T08:28:23;3.13;;;1.80;;
11763;SDS011;5939;56.522;14.950;2022-10-13T08:30:50;4.20;;;2.20;;
11763;SDS011;5939;56.522;14.950;2022-10-13T08:33:17;6.60;;;2.40;;
11763;SDS011;5939;56.522;14.950;2022-10-13T08:35:44;3.87;;;1.70;;
11763;SDS011;5939;56.522;14.950;2022-10-13T08:38:10;4.33;;;1.97;;
11763;SDS011;5939;56.522;14.950;2022-10-13T08:40:36;4.63;;;2.07;;
11763;SDS011;5939;56.522;14.950;2022-10-13T08:43:06;5.90;;;2.23;;
11763;SDS011;5939;56.522;14.950;2022-10-13T08:45:33;5.93;;;2.00;;
11763;SDS011;5939;56.522;14.950;2022-10-13T08:48:00;4.60;;;2.33;;
11763;SDS011;5939;56.522;14.950;2022-10-13T08:50:32;4.37;;;2.30;;
11763;SDS011;5939;56.522;14.950;2022-10-13T08:55:32;3.17;;;2.10;;
11763;SDS011;5939;56.522;14.950;2022-10-13T08:58:11;4.93;;;2.17;;
11763;SDS011;5939;56.522;14.950;2022-10-13T09:00:46;5.57;;;2.47;;
11763;SDS011;5939;56.522;14.950;2022-10-13T09:08:51;4.93;;;2.57;;
11763;SDS011;5939;56.522;14.950;2022-10-13T09:11:17;5.90;;;2.50;;
11763;SDS011;5939;56.522;14.950;2022-10-13T09:13:43;5.20;;;2.20;;
11763;SDS011;5939;56.522;14.950;2022-10-13T09:16:09;5.07;;;2.60;;
11763;SDS011;5939;56.522;14.950;2022-10-13T09:18:35;6.20;;;3.10;;
11763;SDS011;5939;56.522;14.950;2022-10-13T09:21:22;4.83;;;2.67;;
11763;SDS011;5939;56.522;14.950;2022-10-13T09:23:49;5.33;;;2.43;;
11763;SDS011;5939;56.522;14.950;2022-10-13T09:26:20;4.13;;;2.30;;
11763;SDS011;5939;56.522;14.950;2022-10-13T09:28:48;5.20;;;2.60;;
11763;SDS011;5939;56.522;14.950;2022-10-13T09:31:16;5.30;;;2.70;;
11763;SDS011;5939;56.522;14.950;2022-10-13T09:33:55;6.50;;;2.53;;
11763;SDS011;5939;56.522;14.950;2022-10-13T09:36:57;6.77;;;2.37;;
11763;SDS011;5939;56.522;14.950;2022-10-13T09:39:29;6.73;;;2.70;;
11763;SDS011;5939;56.522;14.950;2022-10-13T09:42:17;6.60;;;2.93;;
11763;SDS011;5939;56.522;14.950;2022-10-13T09:44:43;8.07;;;2.70;;
11763;SDS011;5939;56.522;14.950;2022-10-13T09:47:16;9.17;;;3.10;;
11763;SDS011;5939;56.522;14.950;2022-10-13T09:49:44;6.63;;;2.90;;
11763;SDS011;5939;56.522;14.950;2022-10-13T09:54:39;7.20;;;2.63;;
11763;SDS011;5939;56.522;14.950;2022-10-13T09:57:15;5.33;;;3.27;;
11763;SDS011;5939;56.522;14.950;2022-10-13T09:59:44;7.73;;;2.80;;
11763;SDS011;5939;56.522;14.950;2022-10-13T10:04:41;8.73;;;3.17;;
11763;SDS011;5939;56.522;14.950;2022-10-13T10:07:11;9.43;;;3.17;;
11763;SDS011;5939;56.522;14.950;2022-10-13T10:09:53;7.47;;;2.67;;
11763;SDS011;5939;56.522;14.950;2022-10-13T10:12:34;4.97;;;2.83;;
11763;SDS011;5939;56.522;14.950;2022-10-13T10:15:05;6.90;;;2.80;;
11763;SDS011;5939;56.522;14.950;2022-10-13T10:17:57;7.10;;;2.97;;
11763;SDS011;5939;56.522;14.950;2022-10-13T10:23:08;6.67;;;2.73;;
11763;SDS011;5939;56.522;14.950;2022-10-13T10:25:46;6.83;;;2.47;;
11763;SDS011;5939;56.522;14.950;2022-10-13T10:33:38;5.07;;;2.70;;
11763;SDS011;5939;56.522;14.950;2022-10-13T10:36:23;7.13;;;2.93;;
11763;SDS011;5939;56.522;14.950;2022-10-13T10:39:02;5.90;;;3.10;;
11763;SDS011;5939;56.522;14.950;2022-10-13T10:42:05;11.10;;;3.40;;
11763;SDS011;5939;56.522;14.950;2022-10-13T10:44:44;4.63;;;2.67;;
11763;SDS011;5939;56.522;14.950;2022-10-13T10:47:23;4.80;;;2.80;;
11763;SDS011;5939;56.522;14.950;2022-10-13T10:49:54;9.30;;;3.10;;
11763;SDS011;5939;56.522;14.950;2022-10-13T10:52:27;6.10;;;3.00;;
11763;SDS011;5939;56.522;14.950;2022-10-13T10:58:03;9.37;;;3.10;;
11763;SDS011;5939;56.522;14.950;2022-10-13T11:03:48;11.37;;;3.87;;
11763;SDS011;5939;56.522;14.950;2022-10-13T11:06:32;7.87;;;2.90;;
11763;SDS011;5939;56.522;14.950;2022-10-13T11:08:59;7.47;;;2.87;;
11763;SDS011;5939;56.522;14.950;2022-10-13T11:14:02;4.43;;;2.60;;
11763;SDS011;5939;56.522;14.950;2022-10-13T11:17:01;6.77;;;2.60;;
11763;SDS011;5939;56.522;14.950;2022-10-13T11:32:40;6.70;;;3.10;;
11763;SDS011;5939;56.522;14.950;2022-10-13T11:34:59;4.87;;;3.07;;
11763;SDS011;5939;56.522;14.950;2022-10-13T11:45:58;7.40;;;2.70;;
11763;SDS011;5939;56.522;14.950;2022-10-13T11:57:27;5.57;;;2.87;;
11763;SDS011;5939;56.522;14.950;2022-10-13T11:59:56;7.33;;;3.07;;
11763;SDS011;5939;56.522;14.950;2022-10-13T12:02:23;6.40;;;2.80;;
11763;SDS011;5939;56.522;14.950;2022-10-13T12:05:15;6.53;;;3.00;;
11763;SDS011;5939;56.522;14.950;2022-10-13T12:07:54;5.37;;;2.80;;
11763;SDS011;5939;56.522;14.950;2022-10-13T12:12:57;7.57;;;3.10;;
11763;SDS011;5939;56.522;14.950;2022-10-13T12:15:26;5.27;;;3.13;;
11763;SDS011;5939;56.522;14.950;2022-10-13T12:17:55;4.90;;;3.10;;
11763;SDS011;5939;56.522;14.950;2022-10-13T12:20:22;6.30;;;2.90;;
11763;SDS011;5939;56.522;14.950;2022-10-13T12:22:51;6.40;;;3.07;;
11763;SDS011;5939;56.522;14.950;2022-10-13T12:25:19;4.90;;;2.93;;
11763;SDS011;5939;56.522;14.950;2022-10-13T12:27:50;6.97;;;3.17;;
11763;SDS011;5939;56.522;14.950;2022-10-13T12:30:22;8.07;;;3.60;;
11763;SDS011;5939;56.522;14.950;2022-10-13T12:32:51;7.00;;;3.03;;
11763;SDS011;5939;56.522;14.950;2022-10-13T12:35:19;6.43;;;2.93;;
11763;SDS011;5939;56.522;14.950;2022-10-13T12:37:48;5.10;;;2.80;;
11763;SDS011;5939;56.522;14.950;2022-10-13T12:40:14;4.63;;;3.00;;
11763;SDS011;5939;56.522;14.950;2022-10-13T12:42:42;6.63;;;3.07;;
11763;SDS011;5939;56.522;14.950;2022-10-13T12:45:13;5.00;;;3.00;;
11763;SDS011;5939;56.522;14.950;2022-10-13T12:52:50;7.43;;;3.23;;
11763;SDS011;5939;56.522;14.950;2022-10-13T12:55:18;4.80;;;3.10;;
11763;SDS011;5939;56.522;14.950;2022-10-13T12:57:45;6.57;;;4.00;;
11763;SDS011;5939;56.522;14.950;2022-10-13T13:02:41;7.07;;;3.43;;
11763;SDS011;5939;56.522;14.950;2022-10-13T13:05:33;5.93;;;3.77;;
11763;SDS011;5939;56.522;14.950;2022-10-13T13:08:01;6.10;;;3.77;;
11763;SDS011;5939;56.522;14.950;2022-10-13T13:10:29;8.07;;;3.70;;
11763;SDS011;5939;56.522;14.950;2022-10-13T13:12:55;8.83;;;3.83;;
11763;SDS011;5939;56.522;14.950;2022-10-13T13:15:37;6.57;;;3.70;;
11763;SDS011;5939;56.522;14.950;2022-10-13T13:21:04;9.17;;;4.03;;
11763;SDS011;5939;56.522;14.950;2022-10-13T13:23:31;8.47;;;3.80;;
11763;SDS011;5939;56.522;14.950;2022-10-13T13:26:05;6.60;;;3.70;;
11763;SDS011;5939;56.522;14.950;2022-10-13T13:28:37;6.63;;;3.87;;
11763;SDS011;5939;56.522;14.950;2022-10-13T13:31:15;9.20;;;3.73;;
11763;SDS011;5939;56.522;14.950;2022-10-13T13:33:42;6.73;;;3.83;;
11763;SDS011;5939;56.522;14.950;2022-10-13T13:36:18;8.80;;;3.90;;
11763;SDS011;5939;56.522;14.950;2022-10-13T13:38:48;7.20;;;4.27;;
11763;SDS011;5939;56.522;14.950;2022-10-13T13:41:15;7.37;;;4.17;;
11763;SDS011;5939;56.522;14.950;2022-10-13T13:43:42;7.17;;;4.00;;
11763;SDS011;5939;56.522;14.950;2022-10-13T13:46:13;10.90;;;3.80;;
11763;SDS011;5939;56.522;14.950;2022-10-13T13:48:41;6.63;;;3.60;;
11763;SDS011;5939;56.522;14.950;2022-10-13T13:51:08;8.93;;;3.80;;
11763;SDS011;5939;56.522;14.950;2022-10-13T13:53:34;5.90;;;3.50;;
11763;SDS011;5939;56.522;14.950;2022-10-13T13:56:00;7.10;;;3.77;;
11763;SDS011;5939;56.522;14.950;2022-10-13T13:58:25;6.40;;;3.57;;
11763;SDS011;5939;56.522;14.950;2022-10-13T14:00:51;7.87;;;4.10;;
11763;SDS011;5939;56.522;14.950;2022-10-13T14:03:17;5.77;;;3.87;;
11763;SDS011;5939;56.522;14.950;2022-10-13T14:05:42;7.27;;;3.50;;
11763;SDS011;5939;56.522;14.950;2022-10-13T14:08:08;6.97;;;3.50;;
11763;SDS011;5939;56.522;14.950;2022-10-13T14:10:33;8.57;;;4.33;;
11763;SDS011;5939;56.522;14.950;2022-10-13T14:12:59;6.10;;;3.80;;
11763;SDS011;5939;56.522;14.950;2022-10-13T14:15:25;6.50;;;3.50;;
11763;SDS011;5939;56.522;14.950;2022-10-13T14:17:51;8.30;;;3.53;;
11763;SDS011;5939;56.522;14.950;2022-10-13T14:20:18;5.00;;;3.53;;
11763;SDS011;5939;56.522;14.950;2022-10-13T14:22:44;5.73;;;3.80;;
11763;SDS011;5939;56.522;14.950;2022-10-13T14:25:09;5.70;;;3.70;;
11763;SDS011;5939;56.522;14.950;2022-10-13T14:27:35;4.60;;;3.70;;
11763;SDS011;5939;56.522;14.950;2022-10-13T14:30:05;5.63;;;4.00;;
11763;SDS011;5939;56.522;14.950;2022-10-13T14:32:32;4.83;;;3.40;;
11763;SDS011;5939;56.522;14.950;2022-10-13T14:34:59;5.80;;;3.57;;
11763;SDS011;5939;56.522;14.950;2022-10-13T14:37:25;5.50;;;4.13;;
11763;SDS011;5939;56.522;14.950;2022-10-13T14:39:50;6.73;;;3.50;;
11763;SDS011;5939;56.522;14.950;2022-10-13T14:42:16;5.37;;;3.63;;
11763;SDS011;5939;56.522;14.950;2022-10-13T14:44:41;6.63;;;3.53;;
11763;SDS011;5939;56.522;14.950;2022-10-13T14:47:07;6.83;;;4.07;;
11763;SDS011;5939;56.522;14.950;2022-10-13T14:49:33;6.20;;;3.53;;
11763;SDS011;5939;56.522;14.950;2022-10-13T14:51:58;8.03;;;3.93;;
11763;SDS011;5939;56.522;14.950;2022-10-13T14:54:24;7.10;;;3.70;;
11763;SDS011;5939;56.522;14.950;2022-10-13T14:56:50;4.47;;;3.23;;
11763;SDS011;5939;56.522;14.950;2022-10-13T14:59:15;6.23;;;3.77;;
11763;SDS011;5939;56.522;14.950;2022-10-13T15:01:42;5.47;;;3.80;;
11763;SDS011;5939;56.522;14.950;2022-10-13T15:04:09;4.50;;;3.47;;
11763;SDS011;5939;56.522;14.950;2022-10-13T15:06:35;8.67;;;4.13;;
11763;SDS011;5939;56.522;14.950;2022-10-13T15:09:03;6.60;;;3.47;;
11763;SDS011;5939;56.522;14.950;2022-10-13T15:11:29;4.23;;;3.43;;
11763;SDS011;5939;56.522;14.950;2022-10-13T15:13:55;5.50;;;3.40;;
11763;SDS011;5939;56.522;14.950;2022-10-13T15:16:21;4.07;;;3.47;;
11763;SDS011;5939;56.522;14.950;2022-10-13T15:18:52;5.93;;;3.70;;
11763;SDS011;5939;56.522;14.950;2022-10-13T15:21:19;6.27;;;3.63;;
11763;SDS011;5939;56.522;14.950;2022-10-13T15:23:45;5.37;;;3.20;;
11763;SDS011;5939;56.522;14.950;2022-10-13T15:26:11;6.20;;;3.87;;
11763;SDS011;5939;56.522;14.950;2022-10-13T15:28:40;5.63;;;3.77;;
11763;SDS011;5939;56.522;14.950;2022-10-13T15:31:07;6.73;;;4.00;;
11763;SDS011;5939;56.522;14.950;2022-10-13T15:33:33;4.70;;;3.60;;
11763;SDS011;5939;56.522;14.950;2022-10-13T15:35:58;5.43;;;3.23;;
11763;SDS011;5939;56.522;14.950;2022-10-13T15:38:24;4.20;;;3.47;;
11763;SDS011;5939;56.522;14.950;2022-10-13T15:40:51;4.53;;;3.50;;
11763;SDS011;5939;56.522;14.950;2022-10-13T15:43:17;7.10;;;3.83;;
11763;SDS011;5939;56.522;14.950;2022-10-13T15:45:46;7.30;;;3.93;;
11763;SDS011;5939;56.522;14.950;2022-10-13T15:48:18;5.77;;;3.73;;
11763;SDS011;5939;56.522;14.950;2022-10-13T15:50:44;5.13;;;4.10;;
11763;SDS011;5939;56.522;14.950;2022-10-13T15:53:10;7.13;;;3.93;;
11763;SDS011;5939;56.522;14.950;2022-10-13T15:55:37;5.27;;;3.43;;
11763;SDS011;5939;56.522;14.950;2022-10-13T15:58:03;5.97;;;3.73;;
11763;SDS011;5939;56.522;14.950;2022-10-13T16:00:28;5.83;;;3.40;;
11763;SDS011;5939;56.522;14.950;2022-10-13T16:02:54;7.80;;;4.00;;
11763;SDS011;5939;56.522;14.950;2022-10-13T16:05:19;5.67;;;3.87;;
11763;SDS011;5939;56.522;14.950;2022-10-13T16:07:45;6.47;;;4.23;;
11763;SDS011;5939;56.522;14.950;2022-10-13T16:10:12;5.30;;;3.77;;
11763;SDS011;5939;56.522;14.950;2022-10-13T16:12:39;5.43;;;3.73;;
11763;SDS011;5939;56.522;14.950;2022-10-13T16:15:05;5.90;;;3.80;;
11763;SDS011;5939;56.522;14.950;2022-10-13T16:17:32;6.57;;;3.70;;
11763;SDS011;5939;56.522;14.950;2022-10-13T16:19:58;6.30;;;3.97;;
11763;SDS011;5939;56.522;14.950;2022-10-13T16:22:23;8.17;;;4.30;;
11763;SDS011;5939;56.522;14.950;2022-10-13T16:24:49;6.83;;;3.83;;
11763;SDS011;5939;56.522;14.950;2022-10-13T16:27:15;4.67;;;3.50;;
11763;SDS011;5939;56.522;14.950;2022-10-13T16:29:40;8.57;;;4.30;;
11763;SDS011;5939;56.522;14.950;2022-10-13T16:32:06;6.00;;;4.07;;
11763;SDS011;5939;56.522;14.950;2022-10-13T16:34:32;5.23;;;3.60;;
11763;SDS011;5939;56.522;14.950;2022-10-13T16:36:57;5.27;;;3.93;;